Time;durP1;ratioP1;P1;durP2;ratioP2;P2;SDS_P1;SDS_P2;PMS_P1;PMS_P2;Temp;Humidity;BMP_temperature;BMP_pressure;BME280_temperature;BME280_humidity;BME280_pressure;Samples;Min_cycle;Max_cycle;Signal;HPM_P1;HPM_P2
2022/02/18 00:00:22;;;;;;;;;;;6.00;99.90;;;;;;5108900;28;19931;-80
2022/02/18 00:02:48;;;;;;;;;;;6.00;99.90;;;;;;5074863;28;19912;-79
2022/02/18 00:05:13;;;;;;;;;;;6.00;99.90;;;;;;5100323;28;19957;-80
2022/02/18 00:07:39;;;;;;;;;;;5.90;99.90;;;;;;5102845;28;20221;-79
2022/02/18 00:10:05;;;;;;;;;;;5.90;99.90;;;;;;5093277;28;19926;-80
2022/02/18 00:12:30;;;;;;;;;;;5.90;99.90;;;;;;5095066;28;19912;-80
2022/02/18 00:14:56;;;;;;;;;;;5.90;99.90;;;;;;5110963;28;20192;-79
2022/02/18 00:17:21;;;;;;;;;;;5.80;99.90;;;;;;5107192;28;20349;-80
2022/02/18 00:19:47;;;;;;;;;;;5.70;99.90;;;;;;5097660;28;19916;-80
2022/02/18 00:22:13;;;;;;;;;;;5.70;99.90;;;;;;5090878;28;19923;-80
2022/02/18 00:24:38;;;;;;;;;;;5.70;99.90;;;;;;5095878;28;19923;-79
2022/02/18 00:27:04;;;;;;;;;;;5.70;99.90;;;;;;5113833;28;19912;-80
2022/02/18 00:29:30;;;;;;;;;;;5.70;99.90;;;;;;5093313;28;19923;-79
2022/02/18 00:31:55;;;;;;;;;;;5.70;99.90;;;;;;5097893;28;19919;-81
2022/02/18 00:34:21;;;;;;;;;;;5.80;99.90;;;;;;5081554;28;19961;-79
2022/02/18 00:36:46;;;;;;;;;;;5.80;99.90;;;;;;5096501;28;19912;-79
2022/02/18 00:39:12;;;;;;;;;;;5.80;99.90;;;;;;5087103;28;19916;-80
2022/02/18 00:41:37;;;;;;;;;;;5.80;99.90;;;;;;5085205;28;20303;-79
2022/02/18 00:44:03;;;;;;;;;;;5.80;99.90;;;;;;5089323;28;20297;-80
2022/02/18 00:46:29;;;;;;;;;;;5.80;99.90;;;;;;5102798;28;19916;-81
2022/02/18 00:48:55;;;;;;;;;;;5.80;99.90;;;;;;5113434;28;20323;-80
2022/02/18 00:51:21;;;;;;;;;;;5.70;99.90;;;;;;5091096;28;19912;-80
2022/02/18 00:53:46;;;;;;;;;;;5.80;99.90;;;;;;5097800;28;20008;-80
2022/02/18 00:56:12;;;;;;;;;;;5.70;99.90;;;;;;5100374;28;19962;-79
2022/02/18 00:58:38;;;;;;;;;;;5.70;99.90;;;;;;5113821;28;19998;-80
2022/02/18 01:01:03;;;;;;;;;;;5.70;99.90;;;;;;5114689;28;20260;-80
2022/02/18 01:03:29;;;;;;;;;;;5.70;99.90;;;;;;5086366;28;19916;-79
2022/02/18 01:05:54;;;;;;;;;;;5.70;99.90;;;;;;5097925;28;19963;-80
2022/02/18 01:08:20;;;;;;;;;;;5.70;99.90;;;;;;5087538;28;19912;-79
2022/02/18 01:10:45;;;;;;;;;;;5.70;99.90;;;;;;5086483;28;19920;-79
2022/02/18 01:13:11;;;;;;;;;;;5.70;99.90;;;;;;5112036;28;20425;-80
2022/02/18 01:15:37;;;;;;;;;;;5.70;99.90;;;;;;5122522;28;19939;-80
2022/02/18 01:18:04;;;;;;;;;;;5.60;99.90;;;;;;5114919;28;20307;-80
2022/02/18 01:20:29;;;;;;;;;;;5.60;99.90;;;;;;5113565;28;19920;-80
2022/02/18 01:22:55;;;;;;;;;;;5.60;99.90;;;;;;5120034;28;20129;-80
2022/02/18 01:25:24;;;;;;;;;;;5.60;99.90;;;;;;5113464;28;20204;-81
2022/02/18 01:27:55;;;;;;;;;;;5.60;99.90;;;;;;5115390;27;19927;-80
2022/02/18 01:30:22;;;;;;;;;;;5.70;99.90;;;;;;5109034;28;19957;-80
2022/02/18 01:32:47;;;;;;;;;;;5.60;99.90;;;;;;5092290;28;20284;-80
2022/02/18 01:35:15;;;;;;;;;;;5.70;99.90;;;;;;5115132;28;19916;-80
2022/02/18 01:37:41;;;;;;;;;;;5.70;99.90;;;;;;5081619;28;19916;-80
2022/02/18 01:40:07;;;;;;;;;;;5.70;99.90;;;;;;5109723;28;19926;-79
2022/02/18 01:42:33;;;;;;;;;;;5.70;99.90;;;;;;5102849;28;19991;-80
2022/02/18 01:44:59;;;;;;;;;;;5.70;99.90;;;;;;5107866;28;19918;-80
2022/02/18 01:47:25;;;;;;;;;;;5.80;99.90;;;;;;5100495;28;19916;-78
2022/02/18 01:49:58;;;;;;;;;;;5.80;99.90;;;;;;5100272;28;19916;-78
2022/02/18 01:52:28;;;;;;;;;;;5.80;99.90;;;;;;5107607;28;19931;-80
2022/02/18 01:54:54;;;;;;;;;;;5.90;99.90;;;;;;5116570;28;20211;-80
2022/02/18 01:57:19;;;;;;;;;;;5.90;99.90;;;;;;5119946;28;19912;-80
2022/02/18 01:59:45;;;;;;;;;;;5.90;99.90;;;;;;5091529;28;19912;-79
2022/02/18 02:02:10;;;;;;;;;;;5.90;99.90;;;;;;5121146;28;19919;-79
2022/02/18 02:04:36;;;;;;;;;;;5.90;99.90;;;;;;5095179;28;19923;-80
2022/02/18 02:07:04;;;;;;;;;;;6.00;99.90;;;;;;5104391;28;19968;-79
2022/02/18 02:09:30;;;;;;;;;;;6.00;99.90;;;;;;5096279;28;19913;-79
2022/02/18 02:11:55;;;;;;;;;;;6.00;99.90;;;;;;5085952;27;19926;-80
2022/02/18 02:14:21;;;;;;;;;;;6.00;99.90;;;;;;5098887;28;19937;-79
2022/02/18 02:16:46;;;;;;;;;;;6.00;99.90;;;;;;5119666;28;19962;-79
2022/02/18 02:19:12;;;;;;;;;;;6.00;99.90;;;;;;5095454;28;19919;-80
2022/02/18 02:21:37;;;;;;;;;;;6.10;99.90;;;;;;5097019;28;19923;-79
2022/02/18 02:24:03;;;;;;;;;;;6.10;99.90;;;;;;5108061;28;19911;-79
2022/02/18 02:26:29;;;;;;;;;;;6.10;99.90;;;;;;5091818;28;20265;-80
2022/02/18 02:28:55;;;;;;;;;;;6.10;99.90;;;;;;5109242;28;20306;-79
2022/02/18 02:31:24;;;;;;;;;;;6.10;99.90;;;;;;5098560;28;19953;-80
2022/02/18 02:33:50;;;;;;;;;;;6.10;99.90;;;;;;5111900;28;19928;-80
2022/02/18 02:36:15;;;;;;;;;;;6.10;99.90;;;;;;5096174;28;19915;-80
2022/02/18 02:38:41;;;;;;;;;;;6.10;99.90;;;;;;5098251;28;19912;-79
2022/02/18 02:41:06;;;;;;;;;;;6.10;99.90;;;;;;5085313;28;19999;-79
2022/02/18 02:43:32;;;;;;;;;;;6.10;99.90;;;;;;5109595;28;20296;-79
2022/02/18 02:45:57;;;;;;;;;;;6.10;99.90;;;;;;5086173;28;19988;-80
2022/02/18 02:48:23;;;;;;;;;;;6.10;99.90;;;;;;5085793;28;19920;-80
2022/02/18 02:50:48;;;;;;;;;;;6.10;99.90;;;;;;5102713;28;19920;-79
2022/02/18 02:53:14;;;;;;;;;;;6.20;99.90;;;;;;5107430;28;22003;-80
2022/02/18 02:55:40;;;;;;;;;;;6.20;99.90;;;;;;5114283;28;19911;-80
2022/02/18 02:58:05;;;;;;;;;;;6.20;99.90;;;;;;5099460;28;19912;-80
2022/02/18 03:00:31;;;;;;;;;;;6.20;99.90;;;;;;5096270;28;19951;-80
2022/02/18 03:02:56;;;;;;;;;;;6.20;99.90;;;;;;5096661;28;19912;-80
2022/02/18 03:05:22;;;;;;;;;;;6.20;99.90;;;;;;5098263;28;19923;-79
2022/02/18 03:07:48;;;;;;;;;;;6.20;99.90;;;;;;5079019;28;19912;-80
2022/02/18 03:10:14;;;;;;;;;;;6.30;99.90;;;;;;5125751;22;20342;-80
2022/02/18 03:12:40;;;;;;;;;;;6.30;99.90;;;;;;5124506;27;19911;-80
2022/02/18 03:15:06;;;;;;;;;;;6.20;99.90;;;;;;5124425;27;19912;-81
2022/02/18 03:17:31;;;;;;;;;;;6.20;99.90;;;;;;5109319;27;19912;-80
2022/02/18 03:19:57;;;;;;;;;;;6.20;99.90;;;;;;5114957;27;19919;-80
2022/02/18 03:22:22;;;;;;;;;;;6.20;99.90;;;;;;5117311;27;20003;-80
2022/02/18 03:24:48;;;;;;;;;;;6.20;99.90;;;;;;5112406;28;19959;-79
2022/02/18 03:27:14;;;;;;;;;;;6.20;99.90;;;;;;5113822;27;19912;-80
2022/02/18 03:29:39;;;;;;;;;;;6.20;99.90;;;;;;5097595;28;19912;-79
2022/02/18 03:32:05;;;;;;;;;;;6.20;99.90;;;;;;5094416;28;19916;-79
2022/02/18 03:34:31;;;;;;;;;;;6.20;99.90;;;;;;5130769;27;19920;-79
2022/02/18 03:36:57;;;;;;;;;;;6.30;99.90;;;;;;5103614;27;20231;-80
2022/02/18 03:39:23;;;;;;;;;;;6.30;99.90;;;;;;5119457;27;20023;-80
2022/02/18 03:41:49;;;;;;;;;;;6.30;99.90;;;;;;5111967;28;20010;-79
2022/02/18 03:44:14;;;;;;;;;;;6.40;99.90;;;;;;5137342;27;19908;-80
2022/02/18 03:46:40;;;;;;;;;;;6.40;99.90;;;;;;5118712;27;19973;-79
2022/02/18 03:49:05;;;;;;;;;;;6.40;99.90;;;;;;5131990;27;20002;-79
2022/02/18 03:51:31;;;;;;;;;;;6.40;99.90;;;;;;5095986;28;19934;-80
2022/02/18 03:53:56;;;;;;;;;;;6.30;99.90;;;;;;5096451;27;19920;-79
2022/02/18 03:56:22;;;;;;;;;;;6.30;99.90;;;;;;5137444;27;20306;-80
2022/02/18 03:58:48;;;;;;;;;;;6.30;99.90;;;;;;5114083;27;20324;-79
2022/02/18 04:01:13;;;;;;;;;;;6.40;99.90;;;;;;5117342;27;19926;-80
2022/02/18 04:03:41;;;;;;;;;;;6.40;99.90;;;;;;5129844;27;19969;-80
2022/02/18 04:06:07;;;;;;;;;;;6.40;99.90;;;;;;5105389;28;19912;-80
2022/02/18 04:08:32;;;;;;;;;;;6.40;99.90;;;;;;5091242;27;19915;-79
2022/02/18 04:10:58;;;;;;;;;;;6.40;99.90;;;;;;5130354;27;20002;-80
2022/02/18 04:13:24;;;;;;;;;;;6.50;99.90;;;;;;5108761;27;19965;-80
2022/02/18 04:15:49;;;;;;;;;;;6.50;99.90;;;;;;5136979;27;20009;-80
2022/02/18 04:18:15;;;;;;;;;;;6.50;99.90;;;;;;5117655;27;20271;-81
2022/02/18 04:20:40;;;;;;;;;;;6.50;99.90;;;;;;5122369;27;19920;-80
2022/02/18 04:23:06;;;;;;;;;;;6.60;99.90;;;;;;5090450;27;20004;-79
2022/02/18 04:25:32;;;;;;;;;;;6.60;99.90;;;;;;5132109;27;19965;-80
2022/02/18 04:27:59;;;;;;;;;;;6.80;99.90;;;;;;5116557;27;19965;-81
2022/02/18 04:30:24;;;;;;;;;;;6.80;99.90;;;;;;5129931;27;19918;-80
2022/02/18 04:32:50;;;;;;;;;;;6.80;99.90;;;;;;5122643;27;19915;-80
2022/02/18 04:35:16;;;;;;;;;;;6.80;99.90;;;;;;5114689;27;20203;-80
2022/02/18 04:37:41;;;;;;;;;;;6.80;99.90;;;;;;5115761;27;19915;-81
2022/02/18 04:40:08;;;;;;;;;;;6.70;99.90;;;;;;5106463;28;19943;-80
2022/02/18 04:42:33;;;;;;;;;;;6.70;99.90;;;;;;5120293;28;19911;-80
2022/02/18 04:44:59;;;;;;;;;;;6.80;99.90;;;;;;5132073;27;19916;-81
2022/02/18 04:47:24;;;;;;;;;;;6.80;99.90;;;;;;5118347;27;19911;-81
2022/02/18 04:49:50;;;;;;;;;;;6.80;99.90;;;;;;5128428;27;20272;-80
2022/02/18 04:52:15;;;;;;;;;;;6.80;99.90;;;;;;5133515;27;20218;-80
2022/02/18 04:54:44;;;;;;;;;;;6.80;99.90;;;;;;5134158;27;20296;-80
2022/02/18 04:57:10;;;;;;;;;;;6.70;99.90;;;;;;5110091;27;19934;-80
2022/02/18 04:59:35;;;;;;;;;;;6.70;99.90;;;;;;5097648;28;19912;-81
2022/02/18 05:02:01;;;;;;;;;;;6.70;99.90;;;;;;5107822;27;19916;-81
2022/02/18 05:04:26;;;;;;;;;;;6.70;99.90;;;;;;5116584;28;19916;-80
2022/02/18 05:06:52;;;;;;;;;;;6.70;99.90;;;;;;5116308;28;19988;-81
2022/02/18 05:09:17;;;;;;;;;;;6.70;99.90;;;;;;5117745;28;19920;-80
2022/02/18 05:11:43;;;;;;;;;;;6.70;99.90;;;;;;5122623;28;20018;-80
2022/02/18 05:14:08;;;;;;;;;;;6.70;99.90;;;;;;5136201;28;19915;-81
2022/02/18 05:16:34;;;;;;;;;;;6.70;99.90;;;;;;5117856;28;20508;-81
2022/02/18 05:19:00;;;;;;;;;;;6.70;99.90;;;;;;5098294;28;20056;-81
2022/02/18 05:21:25;;;;;;;;;;;6.70;99.90;;;;;;5100023;28;19915;-80
2022/02/18 05:23:51;;;;;;;;;;;6.70;99.90;;;;;;5131032;28;19937;-81
2022/02/18 05:26:17;;;;;;;;;;;6.70;99.90;;;;;;5096240;28;19919;-81
2022/02/18 05:28:42;;;;;;;;;;;6.70;99.90;;;;;;5117866;28;19912;-81
2022/02/18 05:31:08;;;;;;;;;;;6.80;99.90;;;;;;5098465;28;19912;-81
2022/02/18 05:33:33;;;;;;;;;;;6.80;99.90;;;;;;5121883;28;19916;-81
2022/02/18 05:35:59;;;;;;;;;;;6.80;99.90;;;;;;5125398;28;19946;-80
2022/02/18 05:38:25;;;;;;;;;;;6.80;99.90;;;;;;5098792;28;19916;-80
2022/02/18 05:40:51;;;;;;;;;;;6.90;99.90;;;;;;5115993;28;20377;-80
2022/02/18 05:43:16;;;;;;;;;;;6.90;99.90;;;;;;5084967;28;19972;-81
2022/02/18 05:45:42;;;;;;;;;;;6.90;99.90;;;;;;5105517;28;19915;-81
2022/02/18 05:48:08;;;;;;;;;;;6.90;99.90;;;;;;5120016;28;20002;-80
2022/02/18 05:50:33;;;;;;;;;;;6.90;99.90;;;;;;5112526;28;20313;-79
2022/02/18 05:52:59;;;;;;;;;;;6.90;99.90;;;;;;5105604;27;20247;-79
2022/02/18 05:55:24;;;;;;;;;;;7.00;99.90;;;;;;5132218;27;19916;-79
2022/02/18 05:57:50;;;;;;;;;;;6.90;99.90;;;;;;5100876;28;19960;-81
2022/02/18 06:00:16;;;;;;;;;;;7.00;99.90;;;;;;5109836;27;20318;-81
2022/02/18 06:02:43;;;;;;;;;;;7.00;99.90;;;;;;5102092;27;19980;-80
2022/02/18 06:05:10;;;;;;;;;;;7.00;99.90;;;;;;5117000;27;19919;-81
2022/02/18 06:07:35;;;;;;;;;;;7.10;99.90;;;;;;5105328;28;20049;-81
2022/02/18 06:10:01;;;;;;;;;;;7.10;99.90;;;;;;5127243;27;20278;-83
2022/02/18 06:12:27;;;;;;;;;;;7.10;99.90;;;;;;5112163;28;20333;-80
2022/02/18 06:14:53;;;;;;;;;;;7.10;99.90;;;;;;5082187;28;20002;-80
2022/02/18 06:17:21;;;;;;;;;;;7.10;99.90;;;;;;5104052;27;19955;-80
2022/02/18 06:19:47;;;;;;;;;;;7.10;99.90;;;;;;5100011;28;19926;-81
2022/02/18 06:22:14;;;;;;;;;;;7.20;99.90;;;;;;5117455;28;19916;-80
2022/02/18 06:24:40;;;;;;;;;;;7.20;99.90;;;;;;5092894;27;20297;-81
2022/02/18 06:27:06;;;;;;;;;;;7.20;99.90;;;;;;5121176;27;19960;-82
2022/02/18 06:29:31;;;;;;;;;;;7.20;99.90;;;;;;5099985;28;19912;-82
2022/02/18 06:31:59;;;;;;;;;;;7.20;99.90;;;;;;5116007;28;19920;-82
2022/02/18 06:34:25;;;;;;;;;;;7.10;99.90;;;;;;5117256;27;19912;-81
2022/02/18 06:36:51;;;;;;;;;;;7.20;99.90;;;;;;5121033;27;19912;-82
2022/02/18 06:39:21;;;;;;;;;;;7.20;99.90;;;;;;5113377;27;19919;-81
2022/02/18 06:41:48;;;;;;;;;;;7.20;99.90;;;;;;5138732;27;19916;-83
2022/02/18 06:44:13;;;;;;;;;;;7.20;99.90;;;;;;5134481;27;19911;-81
2022/02/18 06:46:39;;;;;;;;;;;7.30;99.90;;;;;;5113908;27;20260;-81
2022/02/18 06:49:05;;;;;;;;;;;7.30;99.90;;;;;;5099295;28;19908;-82
2022/02/18 06:51:30;;;;;;;;;;;7.30;99.90;;;;;;5123190;27;20213;-83
2022/02/18 06:53:56;;;;;;;;;;;7.30;99.90;;;;;;5116299;27;19911;-83
2022/02/18 06:56:22;;;;;;;;;;;7.30;99.90;;;;;;5133664;27;19916;-83
2022/02/18 06:58:47;;;;;;;;;;;7.40;99.90;;;;;;5132451;27;19919;-81
2022/02/18 07:01:13;;;;;;;;;;;7.30;99.90;;;;;;5127922;27;19915;-80
2022/02/18 07:03:38;;;;;;;;;;;7.30;99.90;;;;;;5111449;27;20662;-83
2022/02/18 07:06:04;;;;;;;;;;;7.30;99.90;;;;;;5106917;27;19915;-83
2022/02/18 07:08:30;;;;;;;;;;;7.30;99.90;;;;;;5114607;27;19919;-85
2022/02/18 07:10:56;;;;;;;;;;;7.30;99.90;;;;;;5079874;28;19912;-83
2022/02/18 07:13:22;;;;;;;;;;;7.40;99.90;;;;;;5108474;28;20287;-84
2022/02/18 07:15:47;;;;;;;;;;;7.30;99.90;;;;;;5103565;28;20307;-83
2022/02/18 07:18:13;;;;;;;;;;;7.40;99.90;;;;;;5104249;28;20192;-83
2022/02/18 07:20:39;;;;;;;;;;;7.40;99.90;;;;;;5090788;28;19974;-83
2022/02/18 07:23:07;;;;;;;;;;;7.30;99.90;;;;;;5120490;27;20009;-82
2022/02/18 07:25:33;;;;;;;;;;;7.30;99.90;;;;;;5084499;28;19912;-84
2022/02/18 07:27:59;;;;;;;;;;;7.30;99.90;;;;;;5092815;28;19934;-82
2022/02/18 07:30:24;;;;;;;;;;;7.30;99.90;;;;;;5106676;28;19922;-83
2022/02/18 07:32:50;;;;;;;;;;;7.30;99.90;;;;;;5108195;28;19915;-80
2022/02/18 07:35:15;;;;;;;;;;;7.30;99.90;;;;;;5109841;28;19908;-85
2022/02/18 07:37:42;;;;;;;;;;;7.30;99.90;;;;;;5107913;28;19916;-83
2022/02/18 07:40:08;;;;;;;;;;;7.40;99.90;;;;;;5106492;28;19921;-83
2022/02/18 07:42:34;;;;;;;;;;;7.40;99.90;;;;;;5090105;28;19920;-82
2022/02/18 07:44:59;;;;;;;;;;;7.40;99.90;;;;;;5107810;28;20337;-82
2022/02/18 07:47:25;;;;;;;;;;;7.40;99.90;;;;;;5108411;28;20333;-81
2022/02/18 07:49:50;;;;;;;;;;;7.50;99.90;;;;;;5112742;28;19912;-83
2022/02/18 07:52:16;;;;;;;;;;;7.50;99.90;;;;;;5093823;27;19916;-80
2022/02/18 07:54:42;;;;;;;;;;;7.50;99.90;;;;;;5106905;28;19912;-81
2022/02/18 07:57:07;;;;;;;;;;;7.60;99.90;;;;;;5094146;28;19968;-80
2022/02/18 07:59:33;;;;;;;;;;;7.60;99.90;;;;;;5093543;28;20226;-81
2022/02/18 08:01:59;;;;;;;;;;;7.60;99.90;;;;;;5111782;27;20010;-81
2022/02/18 08:04:24;;;;;;;;;;;7.60;99.90;;;;;;5090142;28;19999;-81
2022/02/18 08:06:50;;;;;;;;;;;7.70;99.90;;;;;;5088886;28;19920;-81
2022/02/18 08:09:16;;;;;;;;;;;7.60;99.90;;;;;;5108536;27;19931;-80
2022/02/18 08:11:41;;;;;;;;;;;7.70;99.90;;;;;;5090499;28;19949;-80
2022/02/18 08:14:07;;;;;;;;;;;7.70;99.90;;;;;;5093658;28;20002;-80
2022/02/18 08:16:33;;;;;;;;;;;7.70;99.90;;;;;;5093481;28;20012;-81
2022/02/18 08:18:59;;;;;;;;;;;7.80;99.90;;;;;;5097030;28;19912;-80
2022/02/18 08:21:24;;;;;;;;;;;7.70;99.90;;;;;;5113386;27;19915;-78
2022/02/18 08:23:52;;;;;;;;;;;7.80;99.90;;;;;;5095150;28;19919;-81
2022/02/18 08:26:22;;;;;;;;;;;7.80;99.90;;;;;;5092123;28;19916;-80
2022/02/18 08:28:48;;;;;;;;;;;7.80;99.90;;;;;;5097101;28;20015;-80
2022/02/18 08:31:13;;;;;;;;;;;7.90;99.90;;;;;;5087941;28;19908;-79
2022/02/18 08:33:39;;;;;;;;;;;7.90;99.90;;;;;;5096344;28;20256;-82
2022/02/18 08:36:07;;;;;;;;;;;7.90;99.90;;;;;;5096783;28;19912;-80
2022/02/18 08:38:34;;;;;;;;;;;7.90;99.90;;;;;;5098600;28;20213;-79
2022/02/18 08:40:59;;;;;;;;;;;8.00;99.90;;;;;;5097087;28;19961;-81
2022/02/18 08:43:25;;;;;;;;;;;8.00;99.90;;;;;;5109785;27;19915;-79
2022/02/18 08:45:50;;;;;;;;;;;8.00;99.90;;;;;;5090660;28;19965;-79
2022/02/18 08:48:16;;;;;;;;;;;8.00;99.90;;;;;;5094526;28;19954;-79
2022/02/18 08:50:41;;;;;;;;;;;8.10;99.90;;;;;;5099064;28;19922;-79
2022/02/18 08:53:07;;;;;;;;;;;8.10;99.90;;;;;;5093531;27;19958;-80
2022/02/18 08:55:33;;;;;;;;;;;8.10;99.90;;;;;;5112260;28;20352;-80
2022/02/18 08:57:59;;;;;;;;;;;8.20;99.90;;;;;;5114529;28;20006;-78
2022/02/18 09:00:25;;;;;;;;;;;8.20;99.90;;;;;;5111878;28;20290;-78
2022/02/18 09:02:50;;;;;;;;;;;8.30;99.90;;;;;;5092503;28;19958;-79
2022/02/18 09:05:16;;;;;;;;;;;8.30;99.90;;;;;;5113760;28;19964;-80
2022/02/18 09:07:44;;;;;;;;;;;8.30;99.90;;;;;;5104205;28;20034;-80
2022/02/18 09:10:10;;;;;;;;;;;8.30;99.90;;;;;;5091157;28;19974;-81
2022/02/18 09:12:39;;;;;;;;;;;8.40;99.90;;;;;;5088475;28;19916;-80
2022/02/18 09:15:05;;;;;;;;;;;8.40;99.90;;;;;;5094619;28;19911;-80
2022/02/18 09:17:31;;;;;;;;;;;8.50;99.90;;;;;;5097863;28;20019;-80
2022/02/18 09:19:58;;;;;;;;;;;8.50;99.90;;;;;;5109863;28;19915;-80
2022/02/18 09:22:24;;;;;;;;;;;8.60;99.90;;;;;;5088572;28;19923;-79
2022/02/18 09:24:51;;;;;;;;;;;8.60;99.90;;;;;;5080230;28;19912;-79
2022/02/18 09:27:17;;;;;;;;;;;8.70;99.90;;;;;;5107740;28;19916;-80
2022/02/18 09:29:42;;;;;;;;;;;8.80;99.90;;;;;;5112227;28;20655;-80
2022/02/18 09:32:08;;;;;;;;;;;8.80;99.90;;;;;;5124404;27;19916;-79
2022/02/18 09:34:34;;;;;;;;;;;8.90;99.90;;;;;;5090537;28;19908;-81
2022/02/18 09:36:59;;;;;;;;;;;8.90;99.90;;;;;;5089524;28;20330;-80
2022/02/18 09:39:25;;;;;;;;;;;9.00;99.90;;;;;;5092966;28;19908;-81
2022/02/18 09:41:51;;;;;;;;;;;9.00;99.90;;;;;;5091585;28;20008;-81
2022/02/18 09:44:17;;;;;;;;;;;9.10;99.90;;;;;;5107033;27;19947;-82
2022/02/18 09:46:44;;;;;;;;;;;9.10;99.90;;;;;;5111069;27;20010;-79
2022/02/18 09:49:10;;;;;;;;;;;9.10;99.90;;;;;;5088476;28;19918;-83
2022/02/18 09:51:37;;;;;;;;;;;9.10;99.90;;;;;;5084292;28;19920;-81
2022/02/18 09:54:02;;;;;;;;;;;9.20;99.90;;;;;;5111937;27;19916;-81
2022/02/18 09:56:32;;;;;;;;;;;9.30;99.90;;;;;;5090986;28;19926;-81
2022/02/18 09:59:08;;;;;;;;;;;9.30;99.90;;;;;;5109579;27;19922;-80
2022/02/18 10:01:34;;;;;;;;;;;9.30;99.90;;;;;;5088716;27;20336;-81
2022/02/18 10:04:00;;;;;;;;;;;9.40;99.90;;;;;;5095277;27;19954;-82
2022/02/18 10:06:28;;;;;;;;;;;9.50;99.90;;;;;;5118140;28;20221;-80
2022/02/18 10:08:53;;;;;;;;;;;9.50;99.90;;;;;;5096102;28;20234;-81
2022/02/18 10:11:19;;;;;;;;;;;9.50;99.90;;;;;;5110542;27;19915;-81
2022/02/18 10:13:45;;;;;;;;;;;9.60;99.90;;;;;;5090854;28;20225;-80
2022/02/18 10:16:12;;;;;;;;;;;9.70;99.90;;;;;;5105603;27;19920;-81
2022/02/18 10:18:45;;;;;;;;;;;9.70;99.90;;;;;;5096619;28;19954;-80
2022/02/18 10:21:15;;;;;;;;;;;9.70;99.90;;;;;;5093407;28;19938;-81
2022/02/18 10:23:40;;;;;;;;;;;9.70;99.90;;;;;;5111330;27;20294;-82
2022/02/18 10:26:06;;;;;;;;;;;9.80;99.90;;;;;;5108612;28;19923;-80
2022/02/18 10:28:31;;;;;;;;;;;9.90;99.90;;;;;;5090590;27;19957;-78
2022/02/18 10:31:01;;;;;;;;;;;9.90;99.90;;;;;;5114356;27;19981;-78
2022/02/18 10:33:27;;;;;;;;;;;10.00;99.90;;;;;;5096368;28;19919;-81
2022/02/18 10:36:03;;;;;;;;;;;10.00;99.90;;;;;;5095139;28;20263;-86
2022/02/18 10:38:36;;;;;;;;;;;10.10;99.90;;;;;;5095169;28;19908;-78
2022/02/18 10:41:20;;;;;;;;;;;10.20;99.90;;;;;;5091638;28;19930;-77
2022/02/18 10:43:46;;;;;;;;;;;10.20;99.90;;;;;;5095136;28;20315;-77
2022/02/18 10:46:12;;;;;;;;;;;10.30;99.90;;;;;;5093778;28;20007;-78
2022/02/18 10:48:48;;;;;;;;;;;10.30;99.90;;;;;;5095624;28;19920;-77
2022/02/18 10:51:18;;;;;;;;;;;10.40;99.90;;;;;;5109952;27;19916;-78
2022/02/18 10:53:47;;;;;;;;;;;10.40;99.90;;;;;;5098057;28;19916;-84
2022/02/18 10:56:14;;;;;;;;;;;10.50;99.90;;;;;;5089133;28;19915;-77
2022/02/18 10:58:43;;;;;;;;;;;10.50;99.90;;;;;;5093105;27;19919;-77
2022/02/18 11:01:16;;;;;;;;;;;10.60;99.90;;;;;;5087062;28;19922;-80
2022/02/18 11:03:46;;;;;;;;;;;10.70;99.90;;;;;;5091316;28;19919;-81
2022/02/18 11:06:23;;;;;;;;;;;10.70;99.90;;;;;;5092246;27;19922;-79
2022/02/18 11:08:54;;;;;;;;;;;10.80;99.90;;;;;;5111043;27;19931;-80
2022/02/18 11:11:20;;;;;;;;;;;10.80;99.90;;;;;;5106771;28;19919;-80
2022/02/18 11:13:46;;;;;;;;;;;10.90;99.90;;;;;;5108664;27;19916;-80
2022/02/18 11:16:16;;;;;;;;;;;10.90;99.90;;;;;;5092167;28;19916;-80
2022/02/18 11:18:42;;;;;;;;;;;11.00;99.90;;;;;;5107142;27;19920;-79
2022/02/18 11:21:08;;;;;;;;;;;11.00;99.90;;;;;;5090464;28;19969;-80
2022/02/18 11:23:34;;;;;;;;;;;11.10;99.90;;;;;;5109038;27;19947;-79
2022/02/18 11:26:00;;;;;;;;;;;11.10;99.90;;;;;;5090062;28;19919;-80
2022/02/18 11:28:29;;;;;;;;;;;11.20;99.90;;;;;;5107135;28;19916;-79
2022/02/18 11:30:56;;;;;;;;;;;11.20;99.90;;;;;;5087709;28;19916;-79
2022/02/18 11:33:27;;;;;;;;;;;11.20;99.90;;;;;;5106530;28;19973;-79
2022/02/18 11:36:00;;;;;;;;;;;11.20;99.90;;;;;;5089447;28;19991;-79
2022/02/18 11:38:36;;;;;;;;;;;11.10;99.90;;;;;;5106419;27;19989;-80
2022/02/18 11:41:28;;;;;;;;;;;11.20;99.90;;;;;;5093367;28;19923;-79
2022/02/18 11:43:55;;;;;;;;;;;11.20;99.90;;;;;;5079864;28;19919;-80
2022/02/18 11:46:25;;;;;;;;;;;11.20;99.90;;;;;;5107024;27;19954;-79
2022/02/18 11:48:51;;;;;;;;;;;11.10;99.90;;;;;;5123164;27;19916;-80
2022/02/18 11:51:21;;;;;;;;;;;11.00;99.90;;;;;;5111109;27;19916;-80
2022/02/18 11:53:57;;;;;;;;;;;10.90;99.90;;;;;;5090384;27;20280;-80
2022/02/18 11:56:35;;;;;;;;;;;10.80;99.90;;;;;;5114176;27;20299;-79
2022/02/18 11:59:02;;;;;;;;;;;10.50;99.90;;;;;;5096084;28;19923;-79
2022/02/18 12:01:46;;;;;;;;;;;10.30;99.90;;;;;;5110474;28;20006;-82
2022/02/18 12:04:14;;;;;;;;;;;10.00;99.90;;;;;;5098201;28;20535;-82
2022/02/18 12:06:39;;;;;;;;;;;9.90;99.90;;;;;;5091757;28;19912;-81
2022/02/18 12:09:05;;;;;;;;;;;9.80;99.90;;;;;;5096799;27;19927;-82
2022/02/18 12:11:41;;;;;;;;;;;9.70;99.90;;;;;;5110961;27;19923;-81
2022/02/18 12:14:13;;;;;;;;;;;9.70;99.90;;;;;;5094921;27;19915;-82
2022/02/18 12:16:40;;;;;;;;;;;9.70;99.90;;;;;;5086945;28;20222;-81
2022/02/18 12:19:10;;;;;;;;;;;9.70;99.90;;;;;;5084792;28;19908;-81
2022/02/18 12:21:55;;;;;;;;;;;9.70;99.90;;;;;;5110281;27;20314;-82
2022/02/18 12:24:30;;;;;;;;;;;9.60;99.90;;;;;;5080038;28;20041;-82
2022/02/18 12:27:15;;;;;;;;;;;9.60;99.90;;;;;;5093989;28;19917;-82
2022/02/18 12:29:40;;;;;;;;;;;9.60;99.90;;;;;;5104656;28;19912;-81
2022/02/18 12:32:06;;;;;;;;;;;9.60;99.90;;;;;;5085531;28;21095;-83
2022/02/18 12:34:33;;;;;;;;;;;9.60;99.90;;;;;;5090176;28;19911;-83
2022/02/18 12:36:59;;;;;;;;;;;9.70;99.90;;;;;;5090800;28;19919;-84
2022/02/18 12:39:38;;;;;;;;;;;9.70;99.90;;;;;;5090324;28;20312;-80
2022/02/18 12:42:18;;;;;;;;;;;9.70;99.90;;;;;;5107053;28;19973;-82
2022/02/18 12:44:47;;;;;;;;;;;9.70;99.90;;;;;;5102934;28;19956;-82
2022/02/18 12:47:20;;;;;;;;;;;9.60;99.90;;;;;;5094443;28;19916;-84
2022/02/18 12:49:46;;;;;;;;;;;9.60;99.90;;;;;;5087239;28;19912;-83
2022/02/18 12:52:12;;;;;;;;;;;9.50;99.90;;;;;;5092789;28;20221;-81
2022/02/18 12:54:45;;;;;;;;;;;9.50;99.90;;;;;;5092857;28;19920;-80
2022/02/18 12:57:25;;;;;;;;;;;9.40;99.90;;;;;;5091857;28;19912;-82
2022/02/18 12:59:51;;;;;;;;;;;9.40;99.90;;;;;;5089697;28;19950;-85
2022/02/18 13:02:36;;;;;;;;;;;9.40;99.90;;;;;;5090255;28;19950;-85
2022/02/18 13:05:20;;;;;;;;;;;9.40;99.90;;;;;;5086208;28;19920;-85
2022/02/18 13:07:51;;;;;;;;;;;9.50;99.90;;;;;;5098228;28;19938;-82
2022/02/18 13:10:18;;;;;;;;;;;9.50;99.90;;;;;;5087679;28;19950;-84
2022/02/18 13:12:45;;;;;;;;;;;9.50;99.90;;;;;;5110029;28;20206;-82
2022/02/18 13:15:15;;;;;;;;;;;9.50;99.90;;;;;;5093153;28;20369;-80
2022/02/18 13:17:45;;;;;;;;;;;9.50;99.90;;;;;;5110914;28;19911;-79
2022/02/18 13:20:13;;;;;;;;;;;9.50;99.90;;;;;;5095939;28;20014;-81
2022/02/18 13:22:38;;;;;;;;;;;9.50;99.90;;;;;;5092373;28;19916;-80
2022/02/18 13:25:24;;;;;;;;;;;9.50;99.90;;;;;;5096989;28;19922;-81
2022/02/18 13:27:50;;;;;;;;;;;9.60;99.90;;;;;;5086991;28;19935;-80
2022/02/18 13:30:20;;;;;;;;;;;9.60;99.90;;;;;;5107632;28;20286;-80
2022/02/18 13:32:45;;;;;;;;;;;9.60;99.90;;;;;;5088762;28;19965;-81
2022/02/18 13:35:17;;;;;;;;;;;9.70;99.90;;;;;;5090039;28;20006;-80
2022/02/18 13:37:42;;;;;;;;;;;9.70;99.90;;;;;;5090097;28;20290;-83
2022/02/18 13:40:12;;;;;;;;;;;9.70;99.90;;;;;;5107955;28;19919;-82
2022/02/18 13:42:47;;;;;;;;;;;9.80;99.90;;;;;;5085849;28;19930;-81
2022/02/18 13:45:13;;;;;;;;;;;9.80;99.90;;;;;;5112585;28;20037;-80
2022/02/18 13:47:40;;;;;;;;;;;9.90;99.90;;;;;;5090923;28;19917;-91
2022/02/18 13:50:06;;;;;;;;;;;10.00;99.90;;;;;;5088245;28;20322;-91
2022/02/18 13:52:32;;;;;;;;;;;10.00;99.90;;;;;;5102768;28;19919;-83
2022/02/18 13:54:58;;;;;;;;;;;10.10;99.90;;;;;;5108987;28;20332;-82
2022/02/18 13:57:29;;;;;;;;;;;10.10;99.90;;;;;;5091359;28;19947;-82
2022/02/18 13:59:55;;;;;;;;;;;10.10;99.90;;;;;;5089439;28;19919;-83
2022/02/18 14:02:24;;;;;;;;;;;10.10;99.90;;;;;;5088026;28;20302;-88
2022/02/18 14:04:51;;;;;;;;;;;10.10;99.90;;;;;;5087234;28;19920;-83
2022/02/18 14:07:20;;;;;;;;;;;10.10;99.90;;;;;;5106697;28;19943;-83
2022/02/18 14:09:50;;;;;;;;;;;10.10;99.90;;;;;;5104733;28;19939;-82
2022/02/18 14:12:38;;;;;;;;;;;10.10;99.90;;;;;;5105678;28;19954;-81
2022/02/18 14:15:05;;;;;;;;;;;10.10;99.90;;;;;;5105182;27;19911;-80
2022/02/18 14:17:31;;;;;;;;;;;10.20;99.90;;;;;;5099998;28;19911;-82
2022/02/18 14:19:58;;;;;;;;;;;10.20;99.90;;;;;;5118199;27;19912;-80
2022/02/18 14:22:31;;;;;;;;;;;10.20;99.90;;;;;;5128550;27;19991;-83
2022/02/18 14:24:57;;;;;;;;;;;10.20;99.90;;;;;;5097467;28;19954;-81
2022/02/18 14:27:23;;;;;;;;;;;10.20;99.90;;;;;;5116750;27;19912;-82